Time;durP1;ratioP1;P1;durP2;ratioP2;P2;SDS_P1;SDS_P2;PMS_P1;PMS_P2;Temp;Humidity;BMP_temperature;BMP_pressure;BME280_temperature;BME280_humidity;BME280_pressure;Samples;Min_cycle;Max_cycle;Signal;HPM_P1;HPM_P2
2021/12/29 00:01:39;;;;;;;25.38;13.60;;;-4.70;89.70;;;;;;6214159;23;20000;-66
2021/12/29 00:04:05;;;;;;;22.48;12.73;;;-4.70;89.50;;;;;;6213722;23;20003;-66
2021/12/29 00:06:30;;;;;;;18.10;10.68;;;-4.70;89.70;;;;;;6214042;23;20000;-66
2021/12/29 00:08:58;;;;;;;16.77;10.40;;;-4.70;89.70;;;;;;6214204;23;20007;-66
2021/12/29 00:11:24;;;;;;;16.02;9.60;;;-4.70;89.70;;;;;;6214668;23;20000;-66
2021/12/29 00:13:50;;;;;;;14.02;8.52;;;-4.70;89.60;;;;;;6214124;23;20336;-65
2021/12/29 00:16:16;;;;;;;15.75;9.73;;;-4.70;89.70;;;;;;6214072;23;20520;-66
2021/12/29 00:18:41;;;;;;;14.43;8.38;;;-4.70;89.60;;;;;;6213863;23;20059;-65
2021/12/29 00:21:08;;;;;;;14.32;8.60;;;-4.70;89.60;;;;;;6214023;23;20076;-66
2021/12/29 00:23:34;;;;;;;13.90;8.43;;;-4.70;89.50;;;;;;6214095;23;20203;-66
2021/12/29 00:26:00;;;;;;;14.20;8.43;;;-4.70;89.60;;;;;;6213782;23;20315;-65
2021/12/29 00:28:26;;;;;;;12.32;7.13;;;-4.70;90.00;;;;;;6213563;23;20005;-66
2021/12/29 00:30:51;;;;;;;12.77;7.88;;;-4.80;89.60;;;;;;6213104;23;20062;-66
2021/12/29 00:33:17;;;;;;;13.18;7.15;;;-4.70;89.80;;;;;;6214096;23;20395;-66
2021/12/29 00:35:44;;;;;;;14.65;8.57;;;-4.70;89.70;;;;;;6213732;23;20424;-66
2021/12/29 00:38:11;;;;;;;13.50;8.20;;;-4.70;89.60;;;;;;6213835;23;20001;-67
2021/12/29 00:40:39;;;;;;;16.15;8.60;;;-4.70;89.60;;;;;;6214235;23;20001;-66
2021/12/29 00:43:06;;;;;;;13.45;7.80;;;-4.70;89.20;;;;;;6213487;23;20003;-67
2021/12/29 00:45:35;;;;;;;13.07;7.85;;;-4.70;89.30;;;;;;6213276;23;20000;-66
2021/12/29 00:48:01;;;;;;;13.80;7.43;;;-4.70;89.50;;;;;;6213637;23;20549;-66
2021/12/29 00:50:27;;;;;;;13.35;7.63;;;-4.70;89.70;;;;;;6213849;23;20028;-66
2021/12/29 00:52:53;;;;;;;13.90;8.10;;;-4.70;89.70;;;;;;6213648;23;20421;-65
2021/12/29 00:55:19;;;;;;;12.07;7.65;;;-4.70;89.50;;;;;;6213656;23;20008;-67
2021/12/29 00:57:46;;;;;;;14.15;8.32;;;-4.70;89.60;;;;;;6213821;23;20278;-67
2021/12/29 01:00:16;;;;;;;14.90;8.65;;;-4.60;89.60;;;;;;6213391;23;20001;-66
2021/12/29 01:02:42;;;;;;;15.02;8.23;;;-4.70;89.50;;;;;;6213630;23;20008;-67
2021/12/29 01:05:09;;;;;;;14.73;8.02;;;-4.70;89.50;;;;;;6213772;23;20139;-66
2021/12/29 01:07:36;;;;;;;14.65;8.52;;;-4.70;89.50;;;;;;6213520;23;20005;-66
2021/12/29 01:10:04;;;;;;;13.55;8.27;;;-4.70;89.50;;;;;;6213282;23;20384;-66
2021/12/29 01:12:30;;;;;;;12.60;7.93;;;-4.70;89.50;;;;;;6213661;23;20000;-67
2021/12/29 01:14:57;;;;;;;12.77;7.90;;;-4.60;89.50;;;;;;6213511;23;20079;-66
2021/12/29 01:17:24;;;;;;;13.20;8.05;;;-4.70;89.50;;;;;;6213579;23;20001;-67
2021/12/29 01:19:53;;;;;;;12.15;7.00;;;-4.70;89.60;;;;;;6212926;23;20401;-66
2021/12/29 01:22:23;;;;;;;13.63;7.30;;;-4.70;89.70;;;;;;6213535;23;20087;-67
2021/12/29 01:24:50;;;;;;;11.40;7.22;;;-4.70;89.60;;;;;;6186585;23;20801;-67
2021/12/29 01:27:16;;;;;;;11.25;7.32;;;-4.70;89.60;;;;;;6213247;23;20087;-65
2021/12/29 01:29:43;;;;;;;12.70;7.45;;;-4.70;89.60;;;;;;6213228;23;20164;-66
2021/12/29 01:32:09;;;;;;;12.85;7.20;;;-4.70;89.60;;;;;;6213392;23;20372;-66
2021/12/29 01:34:35;;;;;;;11.85;7.00;;;-4.70;89.70;;;;;;6213135;23;20000;-65
2021/12/29 01:37:02;;;;;;;11.85;6.82;;;-4.70;89.80;;;;;;6213014;23;20009;-65
2021/12/29 01:39:28;;;;;;;11.38;6.30;;;-4.60;89.80;;;;;;6211842;23;20412;-66
2021/12/29 01:41:55;;;;;;;12.27;7.30;;;-4.60;89.80;;;;;;6211595;23;20000;-65
2021/12/29 01:44:24;;;;;;;11.20;6.57;;;-4.60;89.80;;;;;;6213542;23;20047;-66
2021/12/29 01:46:51;;;;;;;11.68;7.18;;;-4.60;89.80;;;;;;6213092;23;20001;-66
2021/12/29 01:49:17;;;;;;;12.35;7.03;;;-4.60;89.80;;;;;;6213311;23;20012;-68
2021/12/29 01:52:00;;;;;;;11.43;6.95;;;-4.60;89.80;;;;;;6212841;23;20000;-66
2021/12/29 01:54:26;;;;;;;13.18;7.63;;;-4.60;89.70;;;;;;6213201;23;20004;-69
2021/12/29 01:56:55;;;;;;;12.70;6.93;;;-4.60;89.70;;;;;;6212981;23;20071;-66
2021/12/29 01:59:22;;;;;;;11.48;6.97;;;-4.60;89.80;;;;;;6213087;23;20004;-65
2021/12/29 02:01:48;;;;;;;13.10;7.30;;;-4.60;89.80;;;;;;6212837;23;20452;-65
2021/12/29 02:04:14;;;;;;;12.50;7.15;;;-4.60;89.70;;;;;;6213234;23;19997;-66
2021/12/29 02:06:40;;;;;;;12.00;7.30;;;-4.60;89.80;;;;;;6213110;23;19997;-66
2021/12/29 02:09:07;;;;;;;11.38;7.15;;;-4.60;89.80;;;;;;6212957;23;20336;-66
2021/12/29 02:11:34;;;;;;;11.38;6.72;;;-4.60;89.70;;;;;;6212199;23;20096;-67
2021/12/29 02:14:03;;;;;;;11.88;6.55;;;-4.60;89.60;;;;;;6212606;23;20005;-66
2021/12/29 02:16:29;;;;;;;11.15;6.72;;;-4.60;89.70;;;;;;6213300;23;20015;-67
2021/12/29 02:18:57;;;;;;;13.93;7.65;;;-4.60;89.80;;;;;;6212928;23;20404;-67
2021/12/29 02:21:24;;;;;;;12.63;7.32;;;-4.60;89.80;;;;;;6213030;23;19993;-65
2021/12/29 02:26:37;;;;;;;12.82;7.00;;;-4.60;89.60;;;;;;6212499;23;20404;-66
2021/12/29 02:29:07;;;;;;;13.27;7.40;;;-4.70;89.70;;;;;;6213111;23;20475;-66
2021/12/29 02:31:33;;;;;;;12.93;7.65;;;-4.70;89.80;;;;;;6212986;23;20115;-66
2021/12/29 02:33:59;;;;;;;14.55;8.38;;;-4.70;89.80;;;;;;6212700;23;20039;-65
2021/12/29 02:36:26;;;;;;;14.02;8.07;;;-4.70;89.70;;;;;;6213191;23;20419;-66
2021/12/29 02:38:55;;;;;;;12.32;7.22;;;-4.70;89.70;;;;;;6212901;23;20088;-66
2021/12/29 02:41:22;;;;;;;12.38;6.97;;;-4.70;90.00;;;;;;6213547;23;20645;-66
2021/12/29 02:43:51;;;;;;;13.38;7.70;;;-4.70;90.00;;;;;;6212773;23;20005;-67
2021/12/29 02:46:17;;;;;;;12.75;7.38;;;-4.70;90.00;;;;;;6161984;23;20333;-66
2021/12/29 02:48:59;;;;;;;14.05;8.38;;;-4.70;90.00;;;;;;6213051;23;20012;-66
2021/12/29 02:51:26;;;;;;;14.60;8.50;;;-4.70;90.00;;;;;;6213030;23;20499;-68
2021/12/29 02:53:51;;;;;;;12.10;7.43;;;-4.80;90.10;;;;;;6212585;23;20531;-66
2021/12/29 02:56:17;;;;;;;13.00;7.72;;;-4.80;90.10;;;;;;6212959;23;20000;-66
2021/12/29 02:58:43;;;;;;;11.90;7.38;;;-4.80;90.10;;;;;;6212877;23;20005;-66
2021/12/29 03:01:12;;;;;;;12.43;7.32;;;-4.70;90.20;;;;;;6212634;23;20428;-66
2021/12/29 03:03:38;;;;;;;13.43;8.75;;;-4.70;90.20;;;;;;6212592;23;20030;-67
2021/12/29 03:06:08;;;;;;;12.00;7.30;;;-4.70;90.10;;;;;;6212515;23;20008;-66
2021/12/29 03:08:35;;;;;;;12.90;7.40;;;-4.70;90.20;;;;;;6212954;23;20032;-67
2021/12/29 03:11:02;;;;;;;13.73;7.60;;;-4.70;90.20;;;;;;6185893;23;20052;-67
2021/12/29 03:13:30;;;;;;;12.00;7.20;;;-4.70;90.30;;;;;;6212736;23;20000;-67
2021/12/29 03:15:57;;;;;;;13.75;7.43;;;-4.70;90.20;;;;;;6212597;23;20001;-66
2021/12/29 03:18:22;;;;;;;12.77;7.38;;;-4.70;90.20;;;;;;6213012;23;20004;-66
2021/12/29 03:20:49;;;;;;;13.60;7.53;;;-4.70;90.30;;;;;;6213424;23;20366;-66
2021/12/29 03:23:15;;;;;;;12.30;7.13;;;-4.60;90.30;;;;;;6213354;23;20076;-68
2021/12/29 03:25:41;;;;;;;12.20;7.57;;;-4.70;90.50;;;;;;6214583;23;20012;-65
2021/12/29 03:28:09;;;;;;;11.73;6.95;;;-4.60;90.30;;;;;;6214809;23;20036;-66
2021/12/29 03:30:39;;;;;;;11.57;6.97;;;-4.60;90.30;;;;;;6214760;23;20012;-66
2021/12/29 03:33:07;;;;;;;11.57;7.05;;;-4.70;90.30;;;;;;6214837;23;20452;-66
2021/12/29 03:35:42;;;;;;;12.00;7.40;;;-4.60;90.40;;;;;;6214269;23;20073;-65
2021/12/29 03:38:10;;;;;;;12.45;7.75;;;-4.60;90.30;;;;;;6214485;23;20047;-66
2021/12/29 03:40:40;;;;;;;13.73;7.57;;;-4.60;90.30;;;;;;6214706;23;19996;-66
2021/12/29 03:43:08;;;;;;;12.77;7.80;;;-4.60;90.30;;;;;;6214266;23;19996;-66
2021/12/29 03:45:34;;;;;;;14.55;8.10;;;-4.60;90.20;;;;;;6214581;23;20447;-66
2021/12/29 03:48:00;;;;;;;13.30;7.70;;;-4.70;90.30;;;;;;6214303;23;20349;-66
2021/12/29 03:50:26;;;;;;;13.50;7.95;;;-4.70;90.30;;;;;;6187581;23;20035;-67
2021/12/29 03:52:55;;;;;;;15.65;8.60;;;-4.70;90.40;;;;;;6214668;23;20030;-66
2021/12/29 03:55:24;;;;;;;13.77;7.68;;;-4.60;90.30;;;;;;6214330;23;20031;-66
2021/12/29 03:57:49;;;;;;;14.27;8.60;;;-4.70;90.30;;;;;;6187457;23;20490;-67
2021/12/29 04:00:17;;;;;;;13.48;8.32;;;-4.70;90.40;;;;;;6214338;23;20001;-66
2021/12/29 04:02:44;;;;;;;13.52;8.57;;;-4.70;90.40;;;;;;6187799;23;20007;-66
2021/12/29 04:05:12;;;;;;;12.98;7.70;;;-4.70;90.40;;;;;;6214276;23;20273;-67
2021/12/29 04:07:38;;;;;;;13.48;7.55;;;-4.70;90.50;;;;;;6213911;23;20404;-66
2021/12/29 04:10:05;;;;;;;13.82;8.10;;;-4.70;90.80;;;;;;6187428;23;20009;-66
2021/12/29 04:12:31;;;;;;;13.75;8.23;;;-4.70;90.50;;;;;;6214139;23;20017;-67
2021/12/29 04:14:57;;;;;;;14.23;8.45;;;-4.70;90.50;;;;;;6214099;23;20004;-67
2021/12/29 04:17:36;;;;;;;15.30;9.27;;;-4.70;90.50;;;;;;6213939;23;20424;-66
2021/12/29 04:22:51;;;;;;;14.80;8.90;;;-4.70;90.50;;;;;;6214414;23;20062;-66
2021/12/29 04:25:19;;;;;;;13.65;8.82;;;-4.70;90.50;;;;;;6214257;23;20751;-66
2021/12/29 04:27:47;;;;;;;14.20;8.57;;;-4.70;90.50;;;;;;6214078;23;20009;-66
2021/12/29 04:30:12;;;;;;;12.55;8.18;;;-4.70;90.60;;;;;;6214009;23;20012;-66
2021/12/29 04:32:38;;;;;;;13.93;8.60;;;-4.60;90.60;;;;;;6213857;23;20704;-66
2021/12/29 04:35:04;;;;;;;14.57;8.57;;;-4.60;90.50;;;;;;6213860;23;20001;-66
2021/12/29 04:37:30;;;;;;;13.77;8.75;;;-4.60;90.50;;;;;;6213784;23;20051;-65
2021/12/29 04:39:55;;;;;;;15.27;8.82;;;-4.70;90.50;;;;;;6214045;23;20056;-66
2021/12/29 04:42:21;;;;;;;14.07;7.93;;;-4.60;90.50;;;;;;6213832;23;20007;-66
2021/12/29 04:44:47;;;;;;;12.82;8.30;;;-4.60;90.50;;;;;;6214058;23;20464;-66
2021/12/29 04:47:13;;;;;;;13.38;8.30;;;-4.60;90.50;;;;;;6214061;23;20000;-67
2021/12/29 04:49:43;;;;;;;12.80;7.90;;;-4.70;90.50;;;;;;6213743;23;20428;-67
2021/12/29 04:52:11;;;;;;;13.63;8.13;;;-4.60;90.50;;;;;;6213957;23;20004;-67
2021/12/29 04:54:37;;;;;;;13.32;8.23;;;-4.60;90.50;;;;;;6214295;23;20023;-66
2021/12/29 04:57:04;;;;;;;14.15;8.15;;;-4.60;90.40;;;;;;6213606;23;20412;-65
2021/12/29 04:59:30;;;;;;;14.48;8.40;;;-4.60;90.50;;;;;;6213362;23;20067;-66
2021/12/29 05:01:56;;;;;;;13.95;8.23;;;-4.60;90.50;;;;;;6214012;23;20020;-66
2021/12/29 05:04:30;;;;;;;14.48;8.65;;;-4.60;90.50;;;;;;6214526;23;20086;-66
2021/12/29 05:09:40;;;;;;;15.15;9.00;;;-4.70;90.40;;;;;;6213898;23;20066;-66
2021/12/29 05:12:06;;;;;;;14.93;8.52;;;-4.60;90.40;;;;;;6213777;23;20159;-67
2021/12/29 05:14:32;;;;;;;14.23;8.20;;;-4.60;90.40;;;;;;6213871;23;20012;-67
2021/12/29 05:16:58;;;;;;;15.38;8.60;;;-4.60;90.40;;;;;;6213144;23;20008;-67
2021/12/29 05:19:24;;;;;;;14.30;8.45;;;-4.60;90.40;;;;;;6213436;23;20046;-67
2021/12/29 05:21:50;;;;;;;14.35;8.77;;;-4.60;90.40;;;;;;6213830;23;20005;-66
2021/12/29 05:24:16;;;;;;;14.18;8.32;;;-4.60;90.40;;;;;;6213928;23;20001;-67
2021/12/29 05:26:41;;;;;;;12.05;7.40;;;-4.60;90.40;;;;;;6213463;23;20008;-66
2021/12/29 05:29:07;;;;;;;13.02;7.57;;;-4.60;90.40;;;;;;6213353;23;20009;-66
2021/12/29 05:31:33;;;;;;;13.85;8.93;;;-4.60;90.40;;;;;;6213559;23;20004;-66
2021/12/29 05:33:59;;;;;;;13.02;8.32;;;-4.60;90.30;;;;;;6212712;23;20009;-67
2021/12/29 05:36:25;;;;;;;13.77;8.38;;;-4.60;90.30;;;;;;6213360;23;20027;-66
2021/12/29 05:38:53;;;;;;;14.00;8.38;;;-4.60;90.30;;;;;;6213290;23;20421;-66
2021/12/29 05:41:19;;;;;;;15.35;8.40;;;-4.60;90.30;;;;;;6187061;23;20001;-66
2021/12/29 05:43:45;;;;;;;13.18;8.35;;;-4.60;90.20;;;;;;6213283;23;20043;-67
2021/12/29 05:46:11;;;;;;;15.38;8.18;;;-4.60;90.20;;;;;;6213560;23;20001;-67
2021/12/29 05:48:36;;;;;;;15.88;8.63;;;-4.60;90.30;;;;;;6213424;23;20015;-67
2021/12/29 05:51:02;;;;;;;12.57;7.70;;;-4.60;90.20;;;;;;6213336;23;20004;-67
2021/12/29 05:53:28;;;;;;;14.60;8.43;;;-4.60;90.20;;;;;;6213440;23;20009;-67
2021/12/29 05:55:54;;;;;;;13.27;8.00;;;-4.60;90.20;;;;;;6213205;23;20000;-66
2021/12/29 05:58:19;;;;;;;13.45;7.60;;;-4.60;90.20;;;;;;6213756;23;20005;-67
2021/12/29 06:00:45;;;;;;;14.65;8.98;;;-4.60;90.20;;;;;;6213144;23;20001;-67
2021/12/29 06:03:11;;;;;;;14.90;9.02;;;-4.60;90.20;;;;;;6213101;23;19996;-67
2021/12/29 06:05:37;;;;;;;18.30;9.93;;;-4.60;90.20;;;;;;6213366;23;20008;-68
2021/12/29 06:08:04;;;;;;;13.95;8.68;;;-4.50;90.10;;;;;;6213735;23;20059;-68
2021/12/29 06:10:31;;;;;;;14.18;8.98;;;-4.60;90.10;;;;;;6212801;23;20070;-67
2021/12/29 06:12:57;;;;;;;15.20;9.48;;;-4.50;90.20;;;;;;6213072;23;20012;-67
2021/12/29 06:15:22;;;;;;;14.60;8.63;;;-4.50;90.10;;;;;;6213334;23;20019;-67
2021/12/29 06:17:49;;;;;;;15.30;8.70;;;-4.50;90.20;;;;;;6212877;23;20106;-67
2021/12/29 06:20:15;;;;;;;14.70;8.93;;;-4.50;90.20;;;;;;6213010;23;20084;-68
2021/12/29 06:22:42;;;;;;;14.48;8.77;;;-4.50;90.10;;;;;;6213016;23;20001;-67
2021/12/29 06:25:11;;;;;;;13.50;7.93;;;-4.50;90.10;;;;;;6212866;23;20004;-67
2021/12/29 06:27:37;;;;;;;13.65;8.63;;;-4.50;90.10;;;;;;6213187;23;20094;-67
2021/12/29 06:30:05;;;;;;;14.52;8.32;;;-4.40;90.10;;;;;;6213199;23;20376;-67
2021/12/29 06:32:31;;;;;;;15.70;9.18;;;-4.40;90.10;;;;;;6213006;23;20415;-68
2021/12/29 06:34:56;;;;;;;15.52;9.25;;;-4.40;90.10;;;;;;6213294;23;20001;-68
2021/12/29 06:37:23;;;;;;;15.35;8.13;;;-4.40;90.10;;;;;;6212244;23;20028;-67
2021/12/29 06:39:50;;;;;;;13.13;8.05;;;-4.40;90.00;;;;;;6212954;23;20016;-68
2021/12/29 06:42:16;;;;;;;15.68;9.50;;;-4.40;90.00;;;;;;6213029;23;20064;-67
2021/12/29 06:44:44;;;;;;;15.82;9.32;;;-4.40;89.80;;;;;;6213253;23;20393;-67
2021/12/29 06:47:10;;;;;;;14.90;9.13;;;-4.40;89.60;;;;;;6212804;23;20490;-67
2021/12/29 06:49:36;;;;;;;14.43;9.23;;;-4.40;89.60;;;;;;6213000;23;19997;-68
2021/12/29 06:52:03;;;;;;;15.95;9.55;;;-4.40;89.60;;;;;;6213173;23;20005;-67
2021/12/29 06:54:30;;;;;;;13.68;8.60;;;-4.40;89.60;;;;;;6213210;23;20028;-68
2021/12/29 06:56:56;;;;;;;14.73;9.13;;;-4.40;89.60;;;;;;6212844;23;20000;-67
2021/12/29 06:59:22;;;;;;;14.77;8.88;;;-4.40;89.60;;;;;;6214403;23;20420;-67
2021/12/29 07:01:48;;;;;;;14.50;8.63;;;-4.30;89.40;;;;;;6214943;23;20084;-68
2021/12/29 07:04:14;;;;;;;14.55;8.82;;;-4.30;89.30;;;;;;6214946;23;20008;-67
2021/12/29 07:06:39;;;;;;;15.93;9.50;;;-4.30;89.30;;;;;;6214984;23;20048;-67
2021/12/29 07:09:06;;;;;;;14.73;9.13;;;-4.30;89.30;;;;;;6215383;23;20012;-67
2021/12/29 07:11:31;;;;;;;15.35;8.88;;;-4.30;89.50;;;;;;6215132;23;20717;-67
2021/12/29 07:14:00;;;;;;;16.35;9.20;;;-4.30;89.40;;;;;;6214692;23;20004;-67
2021/12/29 07:16:26;;;;;;;15.93;9.23;;;-4.30;89.20;;;;;;6215070;23;20742;-67
2021/12/29 07:18:51;;;;;;;15.80;9.15;;;-4.30;89.30;;;;;;6214829;23;20099;-68
2021/12/29 07:21:17;;;;;;;16.15;9.45;;;-4.20;89.40;;;;;;6214916;23;20011;-66
2021/12/29 07:23:43;;;;;;;14.77;8.68;;;-4.20;89.30;;;;;;6214854;23;20043;-68
2021/12/29 07:26:09;;;;;;;15.13;8.70;;;-4.20;89.20;;;;;;6214632;23;20088;-67
2021/12/29 07:28:34;;;;;;;15.18;9.18;;;-4.20;89.20;;;;;;6187879;23;20012;-68
2021/12/29 07:31:00;;;;;;;15.55;9.25;;;-4.10;89.60;;;;;;6214706;23;20000;-67
2021/12/29 07:33:25;;;;;;;15.15;9.73;;;-4.10;89.10;;;;;;6214865;23;20029;-67
2021/12/29 07:35:51;;;;;;;16.42;9.68;;;-4.10;89.30;;;;;;6214617;23;20001;-67
2021/12/29 07:38:17;;;;;;;15.05;8.77;;;-4.10;89.20;;;;;;6214661;23;20298;-66
2021/12/29 07:40:43;;;;;;;15.20;9.00;;;-4.00;89.00;;;;;;6214694;23;20393;-67
2021/12/29 07:43:09;;;;;;;16.80;9.50;;;-4.00;88.90;;;;;;6214728;23;20058;-67
2021/12/29 07:45:35;;;;;;;15.65;8.85;;;-4.00;88.60;;;;;;6214643;23;20029;-66
2021/12/29 07:48:03;;;;;;;13.20;8.18;;;-4.00;88.40;;;;;;6214569;23;20008;-67
2021/12/29 07:50:29;;;;;;;13.57;8.02;;;-4.00;88.70;;;;;;6214458;23;20027;-66
2021/12/29 07:52:55;;;;;;;13.95;8.55;;;-4.00;88.80;;;;;;6214522;23;20416;-67
2021/12/29 07:55:20;;;;;;;13.77;8.35;;;-4.00;88.60;;;;;;6214775;23;20004;-66
2021/12/29 07:57:47;;;;;;;13.65;8.38;;;-3.90;88.80;;;;;;6214638;23;20005;-66
2021/12/29 08:00:14;;;;;;;14.15;8.20;;;-3.90;88.50;;;;;;6187886;23;20001;-66
2021/12/29 08:02:43;;;;;;;15.10;9.10;;;-3.80;88.50;;;;;;6214569;23;20023;-67
2021/12/29 08:05:10;;;;;;;13.93;8.43;;;-3.80;88.40;;;;;;6214814;23;20004;-66
2021/12/29 08:07:36;;;;;;;15.18;9.07;;;-3.80;88.30;;;;;;6214374;23;20004;-66
2021/12/29 08:10:03;;;;;;;14.88;9.10;;;-3.80;88.30;;;;;;6213357;23;20340;-66
2021/12/29 08:12:29;;;;;;;14.15;8.93;;;-3.70;88.40;;;;;;6214261;23;20058;-68
2021/12/29 08:14:55;;;;;;;15.20;8.82;;;-3.70;88.30;;;;;;6214248;23;20005;-67
2021/12/29 08:17:21;;;;;;;15.32;9.27;;;-3.70;88.20;;;;;;6214626;23;20090;-68
2021/12/29 08:19:46;;;;;;;14.18;8.35;;;-3.60;88.20;;;;;;6214607;23;20001;-68
2021/12/29 08:22:12;;;;;;;14.93;9.10;;;-3.50;88.10;;;;;;6213783;23;20068;-69
2021/12/29 08:24:38;;;;;;;15.15;9.32;;;-3.50;87.70;;;;;;6214216;23;20007;-68
2021/12/29 08:27:04;;;;;;;15.82;9.73;;;-3.50;87.50;;;;;;6213784;23;20031;-66
2021/12/29 08:29:30;;;;;;;16.90;9.73;;;-3.50;87.50;;;;;;6213453;23;20412;-67
2021/12/29 08:31:57;;;;;;;17.92;10.48;;;-3.50;87.20;;;;;;6213963;23;20000;-66
2021/12/29 08:34:24;;;;;;;14.98;9.25;;;-3.50;86.70;;;;;;6214183;23;20428;-66
2021/12/29 08:36:49;;;;;;;17.00;9.88;;;-3.60;87.00;;;;;;6214097;23;20011;-67
2021/12/29 08:39:18;;;;;;;16.17;10.15;;;-3.60;87.20;;;;;;6213922;23;20004;-66
2021/12/29 08:41:45;;;;;;;16.75;10.05;;;-3.50;87.20;;;;;;6214065;23;20012;-66
2021/12/29 08:44:11;;;;;;;18.83;11.93;;;-3.50;87.50;;;;;;6214586;23;20320;-67
2021/12/29 08:46:37;;;;;;;26.58;17.35;;;-3.50;87.20;;;;;;6214148;23;20076;-68
2021/12/29 08:49:04;;;;;;;30.73;21.73;;;-3.50;87.10;;;;;;6213886;23;20336;-68
2021/12/29 08:51:30;;;;;;;26.13;18.35;;;-3.40;87.20;;;;;;6214102;23;20072;-67
2021/12/29 08:53:57;;;;;;;21.13;13.93;;;-3.40;86.90;;;;;;6213750;23;20035;-67
2021/12/29 08:56:24;;;;;;;18.55;11.68;;;-3.30;87.00;;;;;;6213834;23;20005;-67
2021/12/29 08:58:50;;;;;;;15.90;10.13;;;-3.30;86.70;;;;;;6213968;23;20260;-69
2021/12/29 09:01:16;;;;;;;17.70;9.75;;;-3.30;86.70;;;;;;6213696;23;20363;-67
2021/12/29 09:03:43;;;;;;;14.38;8.45;;;-3.30;86.80;;;;;;6213798;23;20007;-67
2021/12/29 09:06:10;;;;;;;15.80;9.48;;;-3.30;87.10;;;;;;6213773;23;20084;-68
2021/12/29 09:08:36;;;;;;;18.50;10.90;;;-3.20;86.40;;;;;;6213910;23;20000;-68
2021/12/29 09:11:01;;;;;;;19.05;12.57;;;-3.20;85.50;;;;;;6212274;23;20067;-67
2021/12/29 09:13:27;;;;;;;18.58;11.13;;;-3.30;85.70;;;;;;6213364;23;20421;-68
2021/12/29 09:15:56;;;;;;;20.50;11.25;;;-3.30;86.20;;;;;;6214307;23;20004;-68
2021/12/29 09:18:24;;;;;;;18.10;11.27;;;-3.30;85.90;;;;;;6213647;23;20000;-68
2021/12/29 09:20:50;;;;;;;21.45;13.63;;;-3.30;86.10;;;;;;6187090;23;20027;-69
2021/12/29 09:23:16;;;;;;;20.55;13.35;;;-3.20;86.10;;;;;;6213872;23;20011;-67
2021/12/29 09:25:44;;;;;;;21.98;13.98;;;-3.30;85.40;;;;;;6213771;23;20012;-67
2021/12/29 09:28:11;;;;;;;23.38;14.70;;;-3.30;85.90;;;;;;6213642;23;20013;-68
2021/12/29 09:30:40;;;;;;;28.58;18.15;;;-3.20;85.90;;;;;;6214029;23;20007;-67
2021/12/29 09:33:07;;;;;;;26.80;16.63;;;-3.20;85.10;;;;;;6213655;23;20001;-69
2021/12/29 09:35:33;;;;;;;32.95;22.35;;;-3.20;85.10;;;;;;6186981;23;20447;-67
2021/12/29 09:37:59;;;;;;;31.23;20.60;;;-3.20;85.20;;;;;;6213443;23;19997;-66
2021/12/29 09:40:25;;;;;;;30.05;19.45;;;-3.20;85.60;;;;;;6213555;23;20011;-67
2021/12/29 09:42:53;;;;;;;22.77;14.98;;;-3.10;85.50;;;;;;6213195;23;19992;-67
2021/12/29 09:45:19;;;;;;;20.85;12.77;;;-3.10;85.10;;;;;;6213248;23;20079;-67
2021/12/29 09:47:46;;;;;;;18.38;11.30;;;-3.10;85.00;;;;;;6213446;23;20001;-67
2021/12/29 09:50:14;;;;;;;29.90;18.20;;;-3.10;85.40;;;;;;6213554;23;20011;-67
2021/12/29 09:52:41;;;;;;;24.92;15.25;;;-3.10;85.00;;;;;;6213484;23;20063;-66
2021/12/29 09:55:11;;;;;;;20.67;13.55;;;-3.10;84.80;;;;;;6213263;23;20000;-68
2021/12/29 09:57:41;;;;;;;22.50;14.30;;;-3.10;84.60;;;;;;6213884;23;20005;-68
2021/12/29 10:00:09;;;;;;;22.35;14.18;;;-3.20;84.40;;;;;;6213327;23;19997;-67
2021/12/29 10:02:35;;;;;;;22.73;15.43;;;-3.20;84.70;;;;;;6213455;23;19996;-68
2021/12/29 10:05:01;;;;;;;21.98;14.02;;;-3.20;84.80;;;;;;6213282;23;20047;-68
2021/12/29 10:07:27;;;;;;;18.75;12.43;;;-3.20;84.50;;;;;;6213343;23;20083;-68
2021/12/29 10:09:54;;;;;;;20.63;13.80;;;-3.20;84.70;;;;;;6213483;23;20417;-67
2021/12/29 10:12:21;;;;;;;21.77;13.45;;;-3.20;84.30;;;;;;6213354;23;20400;-67
2021/12/29 10:14:56;;;;;;;26.60;15.68;;;-3.20;84.20;;;;;;6213055;23;20421;-68
2021/12/29 10:17:27;;;;;;;21.90;14.20;;;-3.30;84.40;;;;;;6212452;23;20012;-68
2021/12/29 10:20:15;;;;;;;20.65;12.57;;;-3.30;84.50;;;;;;6186097;23;20335;-68
2021/12/29 10:22:41;;;;;;;19.85;12.65;;;-3.30;84.40;;;;;;6213246;23;19997;-68
2021/12/29 10:25:13;;;;;;;23.48;14.93;;;-3.20;84.80;;;;;;6213159;23;20007;-67
2021/12/29 10:27:40;;;;;;;24.25;15.25;;;-3.10;84.20;;;;;;6213003;23;20352;-68
2021/12/29 10:30:21;;;;;;;25.35;15.85;;;-3.10;84.10;;;;;;6213183;23;20024;-67
2021/12/29 10:32:47;;;;;;;23.52;15.20;;;-3.20;83.90;;;;;;6213101;23;20731;-68
2021/12/29 10:35:26;;;;;;;32.65;17.45;;;-3.20;84.10;;;;;;6185967;23;20012;-67
2021/12/29 10:37:55;;;;;;;28.02;18.45;;;-3.10;83.90;;;;;;6212410;23;20087;-68
2021/12/29 10:40:31;;;;;;;26.10;16.98;;;-3.10;83.90;;;;;;6212960;23;20004;-68
2021/12/29 10:43:00;;;;;;;28.23;17.33;;;-3.20;83.90;;;;;;6213282;23;20448;-67
2021/12/29 10:45:35;;;;;;;26.60;17.27;;;-3.20;84.20;;;;;;6212957;23;20323;-67
2021/12/29 10:48:03;;;;;;;26.52;17.42;;;-3.20;83.80;;;;;;6212900;23;20000;-67
2021/12/29 10:50:29;;;;;;;24.38;15.68;;;-3.20;83.80;;;;;;6212511;23;20004;-67
2021/12/29 10:52:58;;;;;;;23.40;14.43;;;-3.20;83.80;;;;;;6186380;23;20000;-67
2021/12/29 10:55:33;;;;;;;29.50;18.73;;;-3.30;83.80;;;;;;6212746;23;20008;-67
2021/12/29 10:58:01;;;;;;;26.38;16.52;;;-3.30;84.10;;;;;;6212573;23;20071;-67
2021/12/29 11:00:27;;;;;;;25.70;15.95;;;-3.30;84.50;;;;;;6213256;23;20007;-68
2021/12/29 11:02:53;;;;;;;43.38;27.98;;;-3.30;84.70;;;;;;6212907;23;20001;-68
2021/12/29 11:05:18;;;;;;;31.85;20.25;;;-3.20;84.80;;;;;;6212486;23;19997;-68
2021/12/29 11:07:44;;;;;;;24.40;15.93;;;-3.20;84.80;;;;;;6212922;23;20124;-67
2021/12/29 11:10:16;;;;;;;22.63;14.82;;;-3.20;84.50;;;;;;6212999;23;20385;-66
2021/12/29 11:12:45;;;;;;;19.45;12.73;;;-3.10;84.20;;;;;;6213008;23;20032;-67
2021/12/29 11:15:18;;;;;;;20.83;13.18;;;-3.10;84.20;;;;;;6212952;23;20028;-66
2021/12/29 11:17:44;;;;;;;21.75;15.48;;;-3.10;84.20;;;;;;6213288;23;20005;-69
2021/12/29 11:20:10;;;;;;;18.38;12.27;;;-3.20;84.10;;;;;;6212822;23;20452;-68
2021/12/29 11:22:39;;;;;;;21.85;15.38;;;-3.10;84.30;;;;;;6212952;23;20007;-68
2021/12/29 11:25:05;;;;;;;21.52;15.18;;;-3.10;83.70;;;;;;6212323;23;20001;-68
2021/12/29 11:27:33;;;;;;;18.15;12.98;;;-3.10;83.90;;;;;;6211268;23;20043;-67
2021/12/29 11:30:11;;;;;;;19.05;12.32;;;-3.20;84.30;;;;;;6212802;23;20088;-67
2021/12/29 11:32:40;;;;;;;18.35;11.88;;;-3.10;84.40;;;;;;6211710;23;20076;-67
2021/12/29 11:35:12;;;;;;;26.52;15.20;;;-3.10;84.10;;;;;;6212260;23;20015;-67
2021/12/29 11:37:41;;;;;;;22.73;15.00;;;-3.10;83.80;;;;;;6185485;23;20012;-68
2021/12/29 11:40:08;;;;;;;25.13;15.75;;;-3.10;83.80;;;;;;6211414;23;20001;-68
2021/12/29 11:42:35;;;;;;;28.63;16.25;;;-3.10;84.00;;;;;;6211819;23;19996;-67
2021/12/29 11:45:00;;;;;;;25.25;16.27;;;-3.10;84.00;;;;;;6213573;23;20436;-67
2021/12/29 11:47:26;;;;;;;23.95;15.68;;;-3.10;84.00;;;;;;6214449;23;20004;-66
2021/12/29 11:49:52;;;;;;;25.77;16.30;;;-3.10;83.90;;;;;;6214490;23;20001;-68
2021/12/29 11:52:17;;;;;;;30.60;18.75;;;-3.10;84.00;;;;;;6213903;23;20325;-67
2021/12/29 11:54:58;;;;;;;27.73;17.60;;;-3.10;84.10;;;;;;6209055;23;20008;-68
2021/12/29 11:57:26;;;;;;;26.73;16.05;;;-3.10;83.90;;;;;;6212889;23;20008;-67
2021/12/29 12:00:04;;;;;;;25.75;15.68;;;-3.20;84.00;;;;;;6213931;23;19997;-67
2021/12/29 12:02:30;;;;;;;23.73;15.23;;;-3.10;84.30;;;;;;6213532;23;20354;-67
2021/12/29 12:04:59;;;;;;;23.90;14.20;;;-3.10;83.80;;;;;;6213860;23;20008;-67
2021/12/29 12:07:25;;;;;;;23.50;14.30;;;-3.10;84.10;;;;;;6214182;23;20012;-67
2021/12/29 12:09:50;;;;;;;23.55;14.63;;;-3.10;84.30;;;;;;6214505;23;20337;-67
2021/12/29 12:12:17;;;;;;;24.38;16.10;;;-3.10;83.90;;;;;;6214404;23;20320;-67
2021/12/29 12:14:50;;;;;;;24.95;15.93;;;-3.10;84.00;;;;;;6187343;23;20000;-67
2021/12/29 12:17:19;;;;;;;;;;;-3.10;83.70;;;;;;6214711;23;19996;-68
2021/12/29 12:19:56;;;;;;;25.33;16.25;;;-3.10;83.30;;;;;;6213606;23;19931;-67
2021/12/29 12:22:22;;;;;;;30.15;18.55;;;-3.10;83.70;;;;;;6212826;23;20111;-67
2021/12/29 12:24:50;;;;;;;28.20;18.77;;;-3.10;83.80;;;;;;6213476;23;20055;-67
2021/12/29 12:27:40;;;;;;;29.33;21.83;;;-3.10;83.50;;;;;;6213803;23;20016;-67
2021/12/29 12:30:13;;;;;;;23.05;15.35;;;-3.20;83.90;;;;;;6213984;23;20001;-67
2021/12/29 12:32:47;;;;;;;21.05;13.95;;;-3.20;83.80;;;;;;6213562;23;20011;-67
2021/12/29 12:35:27;;;;;;;21.75;13.55;;;-3.20;83.60;;;;;;6213990;23;20009;-67
2021/12/29 12:37:52;;;;;;;21.33;13.32;;;-3.20;83.30;;;;;;6213766;23;20001;-68
2021/12/29 12:40:28;;;;;;;21.05;13.02;;;-3.20;83.30;;;;;;6214033;23;20019;-67
2021/12/29 12:43:02;;;;;;;19.58;11.95;;;-3.30;83.50;;;;;;6213778;23;20409;-66